Time;durP1;ratioP1;P1;durP2;ratioP2;P2;SDS_P1;SDS_P2;PMS_P1;PMS_P2;Temp;Humidity;BMP_temperature;BMP_pressure;BME280_temperature;BME280_humidity;BME280_pressure;Samples;Min_cycle;Max_cycle;Signal;HPM_P1;HPM_P2
2021/05/25 00:00:28;;;;;;;4.93;3.50;;;10.20;93.00;;;;;;5051882;28;20068;-53
2021/05/25 00:02:55;;;;;;;4.75;3.22;;;10.20;92.90;;;;;;5050565;28;20496;-56
2021/05/25 00:05:30;;;;;;;5.03;3.75;;;10.20;93.00;;;;;;5050951;28;20068;-56
2021/05/25 00:07:56;;;;;;;5.13;3.17;;;10.20;93.00;;;;;;5043766;28;20041;-56
2021/05/25 00:10:24;;;;;;;4.35;3.20;;;10.20;93.00;;;;;;5046785;28;20041;-55
2021/05/25 00:12:50;;;;;;;5.72;3.72;;;10.20;93.00;;;;;;5048661;28;20041;-55
2021/05/25 00:15:19;;;;;;;5.45;3.63;;;10.20;93.00;;;;;;5047619;28;20033;-53
2021/05/25 00:17:45;;;;;;;5.00;3.67;;;10.20;93.00;;;;;;5052060;28;20497;-57
2021/05/25 00:20:13;;;;;;;4.88;3.85;;;10.20;93.00;;;;;;5051110;28;20045;-56
2021/05/25 00:22:39;;;;;;;6.20;4.10;;;10.20;93.00;;;;;;5050749;28;20047;-57
2021/05/25 00:25:07;;;;;;;6.15;4.05;;;10.20;93.10;;;;;;5050768;28;20116;-56
2021/05/25 00:27:33;;;;;;;5.38;3.88;;;10.20;93.10;;;;;;5050908;28;20052;-57
2021/05/25 00:29:59;;;;;;;6.65;3.97;;;10.20;93.00;;;;;;5043341;28;20041;-57
2021/05/25 00:32:25;;;;;;;6.60;3.90;;;10.20;93.00;;;;;;5050500;28;20060;-56
2021/05/25 00:34:51;;;;;;;7.18;4.05;;;10.20;93.10;;;;;;5051233;28;20079;-56
2021/05/25 00:37:16;;;;;;;6.50;4.10;;;10.20;93.10;;;;;;5049110;28;20041;-54
2021/05/25 00:39:42;;;;;;;8.65;4.82;;;10.20;93.10;;;;;;5049730;28;20048;-54
2021/05/25 00:42:08;;;;;;;6.13;4.47;;;10.10;93.00;;;;;;5045498;28;20516;-56
2021/05/25 00:44:33;;;;;;;6.97;4.70;;;10.10;93.10;;;;;;5050407;28;20041;-57
2021/05/25 00:46:59;;;;;;;7.15;4.70;;;10.10;93.10;;;;;;5045214;28;20083;-56
2021/05/25 00:49:25;;;;;;;7.22;4.85;;;10.10;93.20;;;;;;5049005;28;20071;-56
2021/05/25 00:51:50;;;;;;;8.23;4.97;;;10.10;93.10;;;;;;5050681;28;20094;-56
2021/05/25 00:54:16;;;;;;;6.97;5.07;;;10.10;93.10;;;;;;5050244;28;20501;-57
2021/05/25 00:56:42;;;;;;;8.25;5.13;;;10.10;93.10;;;;;;5037483;28;20144;-56
2021/05/25 00:59:07;;;;;;;9.20;5.63;;;10.10;93.20;;;;;;5051003;28;20083;-54
2021/05/25 01:01:33;;;;;;;6.97;5.50;;;10.10;93.30;;;;;;5050937;28;20076;-55
2021/05/25 01:03:59;;;;;;;10.13;5.80;;;10.20;93.20;;;;;;5048672;28;20158;-56
2021/05/25 01:06:24;;;;;;;7.78;5.30;;;10.10;93.10;;;;;;5050856;28;20086;-57
2021/05/25 01:08:50;;;;;;;8.43;5.80;;;10.10;93.20;;;;;;5049081;28;20041;-55
2021/05/25 01:11:18;;;;;;;7.93;5.63;;;10.10;93.20;;;;;;5048385;28;20036;-54
2021/05/25 01:13:53;;;;;;;10.15;6.55;;;10.10;93.30;;;;;;5045244;28;20041;-55
2021/05/25 01:16:22;;;;;;;10.05;5.75;;;10.10;93.20;;;;;;5042410;28;20562;-57
2021/05/25 01:18:48;;;;;;;10.13;5.85;;;10.10;93.30;;;;;;5047865;28;20049;-55
2021/05/25 01:21:15;;;;;;;10.32;6.68;;;10.10;93.30;;;;;;5030044;28;20052;-58
2021/05/25 01:23:44;;;;;;;10.98;7.07;;;10.10;93.20;;;;;;5042581;28;20489;-56
2021/05/25 01:26:11;;;;;;;9.18;7.07;;;10.00;93.30;;;;;;5043599;28;20042;-58
2021/05/25 01:28:38;;;;;;;12.30;7.93;;;10.10;93.40;;;;;;5046187;28;20047;-57
2021/05/25 01:31:05;;;;;;;11.32;7.63;;;10.10;93.40;;;;;;5050965;28;20441;-54
2021/05/25 01:33:32;;;;;;;11.63;8.13;;;10.10;93.40;;;;;;5048760;28;20044;-57
2021/05/25 01:36:00;;;;;;;13.52;8.60;;;10.10;93.50;;;;;;5028447;28;20072;-54
2021/05/25 01:38:28;;;;;;;11.98;8.75;;;10.10;93.50;;;;;;5050613;28;20033;-55
2021/05/25 01:40:56;;;;;;;13.27;8.63;;;10.10;93.40;;;;;;5040972;28;20147;-57
2021/05/25 01:43:22;;;;;;;12.95;9.35;;;10.10;93.50;;;;;;5049854;28;20036;-56
2021/05/25 01:45:47;;;;;;;13.02;9.18;;;10.10;93.60;;;;;;5048320;28;20132;-58
2021/05/25 01:48:13;;;;;;;13.52;9.70;;;10.10;93.50;;;;;;5049141;28;20124;-56
2021/05/25 01:50:41;;;;;;;14.90;10.43;;;10.10;93.50;;;;;;5046568;28;20044;-58
2021/05/25 01:53:12;;;;;;;13.63;10.38;;;10.10;93.50;;;;;;5050384;28;20044;-56
2021/05/25 01:55:51;;;;;;;13.02;10.20;;;10.10;93.50;;;;;;5048344;28;20551;-57
2021/05/25 01:58:27;;;;;;;16.92;10.95;;;10.10;93.50;;;;;;5042433;28;20131;-55
2021/05/25 02:00:58;;;;;;;14.38;10.75;;;10.10;93.50;;;;;;5049747;28;20497;-57
2021/05/25 02:03:24;;;;;;;15.27;11.05;;;10.10;93.50;;;;;;5047063;28;20443;-56
2021/05/25 02:05:50;;;;;;;14.50;10.20;;;10.10;93.50;;;;;;5044989;28;20094;-56
2021/05/25 02:08:17;;;;;;;15.45;11.15;;;10.10;93.50;;;;;;5046336;28;20129;-55
2021/05/25 02:10:48;;;;;;;16.33;11.13;;;10.10;93.50;;;;;;5050071;28;20041;-56
2021/05/25 02:13:19;;;;;;;16.10;11.82;;;10.10;93.60;;;;;;5048451;28;20037;-58
2021/05/25 02:15:48;;;;;;;15.02;11.43;;;10.10;93.80;;;;;;5042179;28;20076;-57
2021/05/25 02:18:16;;;;;;;16.65;11.10;;;10.10;93.60;;;;;;5049964;28;20453;-57
2021/05/25 02:20:45;;;;;;;13.30;10.00;;;10.00;93.50;;;;;;5044815;28;20565;-58
2021/05/25 02:23:12;;;;;;;13.30;10.73;;;10.00;93.40;;;;;;5046085;28;20049;-54
2021/05/25 02:25:38;;;;;;;16.08;10.65;;;10.00;93.50;;;;;;5049613;28;20512;-57
2021/05/25 02:28:05;;;;;;;13.60;10.18;;;10.00;93.50;;;;;;5049535;28;20041;-54
2021/05/25 02:30:32;;;;;;;14.50;10.20;;;10.00;93.50;;;;;;5042743;28;20106;-57
2021/05/25 02:33:00;;;;;;;13.43;9.70;;;9.90;93.40;;;;;;5050104;28;20443;-55
2021/05/25 02:35:26;;;;;;;12.27;9.32;;;10.00;93.40;;;;;;5043412;28;20041;-55
2021/05/25 02:37:52;;;;;;;13.23;9.77;;;9.90;93.30;;;;;;5050337;28;20040;-54
2021/05/25 02:40:17;;;;;;;11.93;9.43;;;9.90;93.40;;;;;;5044527;28;20083;-55
2021/05/25 02:42:43;;;;;;;12.73;9.35;;;9.90;93.30;;;;;;5053737;28;20040;-56
2021/05/25 02:45:10;;;;;;;12.82;9.55;;;9.90;93.40;;;;;;5053089;28;20052;-57
2021/05/25 02:47:35;;;;;;;12.55;9.50;;;9.90;93.30;;;;;;5053719;28;20044;-56
2021/05/25 02:50:08;;;;;;;13.40;9.63;;;9.90;93.30;;;;;;5052794;28;20044;-57
2021/05/25 02:52:42;;;;;;;12.90;9.63;;;9.90;93.30;;;;;;5045261;28;20135;-57
2021/05/25 02:55:14;;;;;;;13.57;9.77;;;9.90;93.30;;;;;;5051835;28;20459;-58
2021/05/25 02:57:40;;;;;;;13.35;9.38;;;9.90;93.30;;;;;;5053771;28;20508;-57
2021/05/25 03:00:08;;;;;;;13.93;10.10;;;9.80;93.20;;;;;;5052425;28;20063;-56
2021/05/25 03:02:34;;;;;;;14.05;9.73;;;9.80;93.30;;;;;;5045679;28;20048;-56
2021/05/25 03:04:59;;;;;;;15.30;9.63;;;9.80;93.40;;;;;;5052478;28;20041;-56
2021/05/25 03:07:25;;;;;;;13.45;10.25;;;9.80;93.30;;;;;;5053083;28;20546;-57
2021/05/25 03:09:51;;;;;;;12.52;9.35;;;9.80;93.50;;;;;;5050334;28;20041;-57
2021/05/25 03:12:16;;;;;;;12.00;9.15;;;9.70;93.20;;;;;;5050374;28;20082;-58
2021/05/25 03:14:42;;;;;;;14.10;9.13;;;9.80;93.30;;;;;;5052624;28;20075;-57
2021/05/25 03:17:08;;;;;;;14.07;9.90;;;9.80;93.20;;;;;;5039444;28;20431;-56
2021/05/25 03:19:33;;;;;;;11.98;8.30;;;9.70;93.10;;;;;;5052971;28;20036;-57
2021/05/25 03:21:59;;;;;;;12.25;8.23;;;9.80;93.20;;;;;;5052811;28;20069;-57
2021/05/25 03:24:24;;;;;;;10.63;8.60;;;9.70;93.10;;;;;;5052291;28;20033;-57
2021/05/25 03:26:50;;;;;;;12.32;7.95;;;9.70;93.10;;;;;;5053242;28;20095;-58
2021/05/25 03:29:16;;;;;;;9.65;7.88;;;9.70;93.00;;;;;;5052852;28;20041;-58
2021/05/25 03:31:43;;;;;;;11.73;7.72;;;9.70;93.10;;;;;;5052951;28;20103;-57
2021/05/25 03:34:09;;;;;;;12.48;7.13;;;9.70;93.10;;;;;;5051857;28;20116;-57
2021/05/25 03:36:34;;;;;;;9.50;6.28;;;9.70;93.00;;;;;;5046181;28;20123;-56
2021/05/25 03:39:00;;;;;;;9.07;5.90;;;9.60;92.80;;;;;;5048672;28;20075;-58
2021/05/25 03:41:26;;;;;;;8.88;5.88;;;9.60;92.90;;;;;;5050833;28;20228;-58
2021/05/25 03:43:51;;;;;;;10.02;6.20;;;9.60;92.60;;;;;;5052157;28;20040;-58
2021/05/25 03:46:17;;;;;;;11.18;6.28;;;9.60;92.50;;;;;;5052315;28;20056;-57
2021/05/25 03:48:43;;;;;;;8.32;5.57;;;9.50;92.50;;;;;;5052249;28;20451;-57
2021/05/25 03:51:09;;;;;;;11.45;7.05;;;9.40;92.50;;;;;;5052725;28;20124;-58
2021/05/25 03:53:35;;;;;;;10.93;6.93;;;9.40;92.60;;;;;;5049600;28;20041;-57
2021/05/25 03:56:17;;;;;;;10.80;7.15;;;9.40;92.60;;;;;;5052691;28;20045;-56
2021/05/25 03:58:50;;;;;;;10.90;7.53;;;9.40;92.70;;;;;;5051838;28;20048;-58
2021/05/25 04:01:22;;;;;;;13.20;8.05;;;9.30;92.60;;;;;;5051987;28;20044;-57
2021/05/25 04:03:53;;;;;;;12.90;7.60;;;9.30;92.70;;;;;;5051840;28;20044;-55
2021/05/25 04:06:19;;;;;;;12.52;7.85;;;9.30;92.80;;;;;;5051789;28;20045;-57
2021/05/25 04:08:46;;;;;;;15.57;9.13;;;9.30;92.70;;;;;;5052128;28;20122;-58
2021/05/25 04:11:13;;;;;;;16.17;9.32;;;9.30;92.80;;;;;;5051977;28;20048;-57
2021/05/25 04:13:38;;;;;;;15.30;9.45;;;9.20;92.80;;;;;;5051248;28;20135;-57
2021/05/25 04:16:07;;;;;;;17.23;9.48;;;9.30;92.80;;;;;;5052056;28;20115;-57
2021/05/25 04:18:32;;;;;;;19.60;10.93;;;9.30;92.90;;;;;;5051188;28;20044;-57
2021/05/25 04:20:58;;;;;;;18.23;10.32;;;9.30;93.20;;;;;;5051631;28;20111;-57
2021/05/25 04:23:24;;;;;;;17.80;11.02;;;9.30;93.00;;;;;;5049884;28;20037;-57
2021/05/25 04:25:50;;;;;;;14.35;10.27;;;9.30;93.10;;;;;;5048561;28;20588;-57
2021/05/25 04:28:16;;;;;;;15.75;11.07;;;9.30;93.20;;;;;;5051605;28;20048;-56
2021/05/25 04:30:42;;;;;;;17.05;11.55;;;9.30;93.10;;;;;;5051259;28;20123;-58
2021/05/25 04:33:08;;;;;;;17.52;11.98;;;9.30;93.10;;;;;;5050728;28;20084;-57
2021/05/25 04:35:34;;;;;;;18.08;12.77;;;9.30;93.10;;;;;;5050723;28;20072;-56
2021/05/25 04:38:00;;;;;;;19.58;13.30;;;9.30;93.10;;;;;;5051705;28;20489;-56
2021/05/25 04:40:27;;;;;;;18.40;13.48;;;9.30;93.20;;;;;;5047393;28;20315;-57
2021/05/25 04:42:53;;;;;;;23.15;14.70;;;9.30;93.20;;;;;;5051474;28;20087;-57
2021/05/25 04:45:19;;;;;;;20.15;13.80;;;9.40;93.30;;;;;;5049985;28;20041;-57
2021/05/25 04:47:45;;;;;;;23.50;13.63;;;9.40;93.30;;;;;;5049699;28;20049;-58
2021/05/25 04:50:13;;;;;;;21.02;14.57;;;9.40;93.30;;;;;;5045188;28;20068;-58
2021/05/25 04:52:39;;;;;;;21.35;15.43;;;9.40;93.40;;;;;;5048021;28;20068;-57
2021/05/25 04:55:08;;;;;;;25.20;15.60;;;9.50;93.40;;;;;;5050452;28;20039;-57
2021/05/25 04:57:33;;;;;;;29.30;17.50;;;9.40;93.20;;;;;;5049176;28;20045;-57
2021/05/25 04:59:59;;;;;;;22.98;16.15;;;9.40;93.20;;;;;;5050641;28;20493;-58
2021/05/25 05:02:25;;;;;;;26.30;17.50;;;9.40;93.30;;;;;;5050978;28;20540;-59
2021/05/25 05:04:50;;;;;;;30.27;18.50;;;9.50;93.40;;;;;;5047915;28;20057;-58
2021/05/25 05:07:16;;;;;;;23.77;17.85;;;9.40;93.20;;;;;;5048970;28;20053;-58
2021/05/25 05:09:42;;;;;;;26.13;19.00;;;9.40;93.20;;;;;;5051041;28;20468;-59
2021/05/25 05:12:08;;;;;;;27.50;19.17;;;9.40;93.30;;;;;;5049101;28;20041;-58
2021/05/25 05:14:33;;;;;;;25.05;18.45;;;9.40;93.30;;;;;;5050391;28;20098;-58
2021/05/25 05:16:59;;;;;;;27.45;19.45;;;9.40;93.30;;;;;;5049804;28;20049;-57
2021/05/25 05:19:25;;;;;;;27.88;19.55;;;9.40;93.20;;;;;;5048669;28;20049;-57
2021/05/25 05:21:51;;;;;;;29.20;19.45;;;9.40;93.20;;;;;;5049979;28;20466;-54
2021/05/25 05:24:17;;;;;;;29.13;20.73;;;9.40;93.20;;;;;;5045823;28;20504;-57
2021/05/25 05:26:43;;;;;;;29.58;19.85;;;9.40;93.20;;;;;;5045238;28;20128;-57
2021/05/25 05:29:08;;;;;;;29.25;19.90;;;9.40;93.10;;;;;;5050329;28;20051;-57
2021/05/25 05:31:34;;;;;;;28.45;19.63;;;9.40;93.10;;;;;;5050568;28;20040;-58
2021/05/25 05:34:00;;;;;;;27.73;19.92;;;9.40;93.20;;;;;;5049731;28;20439;-57
2021/05/25 05:36:26;;;;;;;25.88;19.15;;;9.40;93.30;;;;;;5050824;28;20045;-57
2021/05/25 05:38:51;;;;;;;29.15;20.23;;;9.40;93.30;;;;;;5050206;28;20048;-57
2021/05/25 05:41:17;;;;;;;28.52;18.85;;;9.40;93.40;;;;;;5047658;28;20087;-56
2021/05/25 05:43:43;;;;;;;31.00;19.15;;;9.50;93.30;;;;;;5047161;28;20067;-58
2021/05/25 05:46:08;;;;;;;24.55;17.20;;;9.40;93.20;;;;;;5049820;28;20044;-57
2021/05/25 05:48:34;;;;;;;25.88;17.23;;;9.40;93.20;;;;;;5050574;28;20120;-57
2021/05/25 05:51:00;;;;;;;25.10;17.77;;;9.40;93.10;;;;;;5050776;28;20069;-57
2021/05/25 05:53:26;;;;;;;23.25;17.23;;;9.40;92.90;;;;;;5049381;28;20047;-54
2021/05/25 05:55:51;;;;;;;26.27;17.52;;;9.40;92.80;;;;;;5049940;28;20094;-56
2021/05/25 05:58:17;;;;;;;24.10;17.20;;;9.40;92.90;;;;;;5050081;28;20047;-57
2021/05/25 06:00:44;;;;;;;23.38;16.92;;;9.40;93.00;;;;;;5050229;28;20048;-57
2021/05/25 06:03:13;;;;;;;20.85;15.27;;;9.50;93.20;;;;;;5045166;28;20052;-55
2021/05/25 06:05:39;;;;;;;23.10;15.88;;;9.50;93.10;;;;;;5049236;28;20045;-57
2021/05/25 06:08:07;;;;;;;23.20;14.60;;;9.50;92.90;;;;;;5048540;28;20040;-57
2021/05/25 06:10:35;;;;;;;22.25;14.95;;;9.50;93.00;;;;;;5054230;28;20044;-57
2021/05/25 06:13:02;;;;;;;22.05;15.13;;;9.40;92.90;;;;;;5048397;28;20041;-53
2021/05/25 06:15:27;;;;;;;20.08;14.27;;;9.50;93.10;;;;;;5051910;28;20507;-57
2021/05/25 06:17:53;;;;;;;17.80;13.52;;;9.50;93.10;;;;;;5054447;28;20127;-57
2021/05/25 06:20:19;;;;;;;18.73;12.68;;;9.40;92.90;;;;;;5051269;28;20136;-57
2021/05/25 06:22:45;;;;;;;18.80;13.80;;;9.40;92.90;;;;;;5049990;28;20505;-57
2021/05/25 06:25:12;;;;;;;19.30;13.57;;;9.50;92.90;;;;;;5047470;28;20037;-57
2021/05/25 06:27:38;;;;;;;20.98;13.77;;;9.40;92.80;;;;;;5052051;28;20090;-57
2021/05/25 06:30:06;;;;;;;18.23;13.85;;;9.40;92.80;;;;;;5053183;28;20493;-57
2021/05/25 06:32:32;;;;;;;24.10;13.52;;;9.40;92.90;;;;;;5036076;28;20052;-57
2021/05/25 06:34:58;;;;;;;17.80;13.55;;;9.40;92.90;;;;;;5052800;28;20444;-57
2021/05/25 06:37:23;;;;;;;20.63;14.07;;;9.30;93.00;;;;;;5053432;28;20041;-57
2021/05/25 06:39:49;;;;;;;21.13;14.00;;;9.30;92.90;;;;;;5053496;28;20404;-57
2021/05/25 06:42:15;;;;;;;19.27;13.65;;;9.40;93.00;;;;;;5053128;28;20099;-57
2021/05/25 06:44:40;;;;;;;21.42;14.38;;;9.40;93.00;;;;;;5051969;28;20087;-57
2021/05/25 06:47:06;;;;;;;20.75;15.05;;;9.30;92.90;;;;;;5053894;28;20524;-57
2021/05/25 06:49:32;;;;;;;22.02;15.95;;;9.30;92.90;;;;;;5052154;28;20040;-56
2021/05/25 06:51:58;;;;;;;21.25;15.75;;;9.40;92.90;;;;;;5052595;28;20048;-57
2021/05/25 06:54:23;;;;;;;21.52;15.77;;;9.30;93.00;;;;;;5049312;28;20037;-57
2021/05/25 06:56:49;;;;;;;20.45;15.52;;;9.40;93.00;;;;;;5049391;28;20036;-56
2021/05/25 06:59:14;;;;;;;24.45;15.57;;;9.40;92.90;;;;;;5053165;28;20405;-57
2021/05/25 07:01:40;;;;;;;21.23;15.80;;;9.50;93.10;;;;;;5052342;28;20072;-54
2021/05/25 07:04:06;;;;;;;20.23;15.63;;;9.40;93.00;;;;;;5049376;28;20051;-57
2021/05/25 07:06:31;;;;;;;18.98;14.75;;;9.50;92.90;;;;;;5051288;28;20044;-57
2021/05/25 07:08:57;;;;;;;22.23;15.73;;;9.50;92.90;;;;;;5051411;28;20078;-55
2021/05/25 07:11:23;;;;;;;22.90;16.48;;;9.40;92.80;;;;;;5050964;28;20413;-57
2021/05/25 07:13:49;;;;;;;21.27;15.32;;;9.50;93.00;;;;;;5051211;28;20056;-56
2021/05/25 07:16:15;;;;;;;22.33;15.50;;;9.50;93.00;;;;;;5052214;28;20048;-57
2021/05/25 07:18:41;;;;;;;19.23;15.75;;;9.50;92.90;;;;;;5022699;28;20563;-55
2021/05/25 07:21:07;;;;;;;20.08;15.88;;;9.50;92.90;;;;;;5050139;28;20087;-57
2021/05/25 07:23:34;;;;;;;20.02;16.00;;;9.60;93.00;;;;;;5050000;28;20045;-57
2021/05/25 07:26:00;;;;;;;20.42;15.50;;;9.60;93.10;;;;;;5051766;28;20073;-56
2021/05/25 07:28:26;;;;;;;19.80;15.70;;;9.70;93.00;;;;;;5049411;28;20110;-57
2021/05/25 07:30:52;;;;;;;20.05;14.93;;;9.70;92.90;;;;;;5050149;28;20485;-57
2021/05/25 07:33:18;;;;;;;22.70;15.82;;;9.70;92.70;;;;;;5051242;28;20033;-56
2021/05/25 07:35:44;;;;;;;26.15;17.20;;;9.70;92.70;;;;;;5048200;28;20041;-55
2021/05/25 07:38:09;;;;;;;21.58;16.10;;;9.70;92.90;;;;;;5049950;28;20045;-57
2021/05/25 07:40:35;;;;;;;21.27;15.18;;;9.70;92.90;;;;;;5047710;28;20034;-57
2021/05/25 07:43:01;;;;;;;24.13;15.77;;;9.80;92.90;;;;;;5050978;28;20045;-57
2021/05/25 07:45:27;;;;;;;21.63;16.02;;;9.80;93.00;;;;;;5050508;28;20081;-57
2021/05/25 07:47:53;;;;;;;21.23;15.00;;;9.80;92.80;;;;;;5049044;28;20029;-57
2021/05/25 07:50:19;;;;;;;22.58;14.80;;;9.80;92.80;;;;;;5049887;28;20041;-56
2021/05/25 07:52:50;;;;;;;21.17;14.82;;;9.80;92.90;;;;;;5050423;28;20033;-57
2021/05/25 07:55:20;;;;;;;21.42;15.30;;;9.80;92.80;;;;;;5050355;28;20037;-57
2021/05/25 07:57:46;;;;;;;22.13;15.00;;;9.80;92.70;;;;;;5051672;28;20040;-57
2021/05/25 08:00:12;;;;;;;23.95;15.00;;;9.80;92.70;;;;;;5050839;28;20041;-57
2021/05/25 08:02:40;;;;;;;18.92;14.48;;;9.80;92.80;;;;;;5050283;28;20534;-58
2021/05/25 08:05:07;;;;;;;19.67;14.40;;;9.80;92.80;;;;;;5048368;28;20044;-57
2021/05/25 08:07:32;;;;;;;6.85;4.53;;;9.80;92.80;;;;;;5050908;28;20497;-57
2021/05/25 08:09:58;;;;;;;8.15;3.90;;;9.80;91.80;;;;;;5050609;28;20051;-58
2021/05/25 08:12:24;;;;;;;4.95;3.00;;;9.70;91.70;;;;;;5032260;28;20086;-58
2021/05/25 08:14:51;;;;;;;7.30;3.70;;;9.50;91.50;;;;;;5049144;28;20041;-57
2021/05/25 08:17:21;;;;;;;8.27;4.18;;;9.40;91.80;;;;;;5030570;28;20106;-57
2021/05/25 08:19:48;;;;;;;6.22;3.90;;;9.30;91.80;;;;;;5050347;28;20049;-58
2021/05/25 08:22:14;;;;;;;6.15;4.32;;;9.20;92.10;;;;;;5048553;28;20045;-55
2021/05/25 08:24:40;;;;;;;7.05;4.60;;;9.20;92.40;;;;;;5050140;28;20037;-57
2021/05/25 08:27:06;;;;;;;6.88;3.95;;;9.10;92.40;;;;;;5048210;28;20300;-57
2021/05/25 08:29:32;;;;;;;6.70;3.75;;;9.20;92.80;;;;;;5046471;28;20512;-57
2021/05/25 08:31:58;;;;;;;5.70;4.03;;;9.10;92.80;;;;;;5051393;28;20044;-58
2021/05/25 08:34:24;;;;;;;8.40;4.40;;;9.10;92.80;;;;;;5044881;28;20083;-57
2021/05/25 08:36:51;;;;;;;7.32;4.40;;;9.10;92.90;;;;;;5043163;28;20107;-57
2021/05/25 08:39:17;;;;;;;6.80;3.60;;;9.20;93.10;;;;;;5050968;28;20493;-56
2021/05/25 08:41:43;;;;;;;3.25;2.42;;;9.20;93.20;;;;;;5046344;28;20049;-56
2021/05/25 08:44:09;;;;;;;5.28;2.95;;;9.30;93.20;;;;;;5048325;28;20044;-57
2021/05/25 08:46:37;;;;;;;4.82;2.65;;;9.30;93.30;;;;;;5038515;28;20532;-57
2021/05/25 08:49:10;;;;;;;5.25;2.53;;;9.30;93.60;;;;;;5048511;28;20033;-57
2021/05/25 08:51:36;;;;;;;3.85;2.58;;;9.20;93.20;;;;;;5049992;28;20507;-57
2021/05/25 08:54:02;;;;;;;3.70;2.10;;;9.20;92.70;;;;;;5049138;28;20033;-56
2021/05/25 08:56:28;;;;;;;2.45;1.90;;;9.20;92.70;;;;;;5046909;28;20037;-56
2021/05/25 08:58:54;;;;;;;2.08;1.60;;;9.00;92.60;;;;;;5049735;28;20053;-57
2021/05/25 09:01:19;;;;;;;4.63;1.80;;;9.10;92.60;;;;;;5050161;28;20098;-58
2021/05/25 09:04:07;;;;;;;3.00;1.75;;;9.10;92.90;;;;;;5049136;28;20056;-57
2021/05/25 09:06:40;;;;;;;3.17;2.00;;;9.10;92.90;;;;;;5046029;28;20044;-57
2021/05/25 09:09:14;;;;;;;2.85;2.03;;;9.10;92.90;;;;;;5047347;28;20044;-56
2021/05/25 09:12:03;;;;;;;3.03;1.73;;;9.10;93.10;;;;;;5049274;28;20124;-57
2021/05/25 09:14:32;;;;;;;2.42;1.90;;;9.20;93.30;;;;;;5048716;28;20567;-57
2021/05/25 09:17:18;;;;;;;2.10;1.85;;;9.30;93.20;;;;;;5029451;28;20095;-57
2021/05/25 09:19:49;;;;;;;3.72;1.90;;;9.40;93.20;;;;;;5031145;28;20402;-57
2021/05/25 09:22:36;;;;;;;2.65;1.95;;;9.50;93.00;;;;;;5046273;28;20033;-57
2021/05/25 09:25:23;;;;;;;6.18;2.28;;;9.60;93.10;;;;;;5045452;28;20043;-57
2021/05/25 09:28:02;;;;;;;3.53;2.08;;;9.60;93.20;;;;;;5048456;28;20033;-57
2021/05/25 09:30:29;;;;;;;3.97;2.00;;;9.70;93.50;;;;;;5049452;28;20041;-57
2021/05/25 09:32:58;;;;;;;4.78;2.10;;;9.80;93.50;;;;;;5045863;28;20047;-57
2021/05/25 09:35:36;;;;;;;2.67;2.10;;;9.90;93.30;;;;;;5046019;28;20037;-57
2021/05/25 09:38:08;;;;;;;4.75;2.78;;;9.90;93.20;;;;;;5046013;28;20047;-54
2021/05/25 09:40:35;;;;;;;3.20;2.50;;;10.10;93.40;;;;;;5047624;28;20132;-57
2021/05/25 09:43:18;;;;;;;5.72;3.13;;;10.30;93.70;;;;;;5047786;28;20792;-56
2021/05/25 09:45:57;;;;;;;4.68;2.78;;;10.70;93.50;;;;;;5048144;28;20040;-57
2021/05/25 09:48:27;;;;;;;3.42;2.60;;;11.00;93.10;;;;;;5041903;28;20052;-57
2021/05/25 09:50:54;;;;;;;6.00;3.30;;;11.20;92.50;;;;;;5022451;28;20051;-57
2021/05/25 09:53:21;;;;;;;4.68;3.20;;;11.50;92.60;;;;;;5042758;28;20501;-56
2021/05/25 09:55:51;;;;;;;6.00;3.53;;;11.70;92.30;;;;;;5044015;28;20428;-56
2021/05/25 09:58:21;;;;;;;5.70;4.40;;;12.00;92.30;;;;;;5046598;28;20043;-56
2021/05/25 10:00:47;;;;;;;9.82;5.28;;;12.10;91.80;;;;;;5040139;28;20106;-56
2021/05/25 10:03:24;;;;;;;8.18;5.65;;;12.20;91.60;;;;;;5039845;28;20655;-56
2021/05/25 10:05:54;;;;;;;11.95;6.25;;;12.20;91.30;;;;;;5046491;28;20033;-56
2021/05/25 10:08:23;;;;;;;9.82;5.80;;;12.20;91.30;;;;;;5047220;28;20052;-56
2021/05/25 10:10:50;;;;;;;11.27;6.43;;;12.20;91.30;;;;;;5046545;28;20029;-56
2021/05/25 10:13:16;;;;;;;11.82;7.10;;;12.10;91.20;;;;;;5047904;28;20489;-56
2021/05/25 10:15:46;;;;;;;10.57;6.82;;;12.00;91.20;;;;;;5046477;28;20143;-57
2021/05/25 10:20:41;;;;;;;14.10;8.45;;;12.00;91.60;;;;;;5046567;28;20040;-56
2021/05/25 10:23:09;;;;;;;11.85;8.75;;;12.00;91.70;;;;;;5047045;28;20037;-56
2021/05/25 10:25:36;;;;;;;15.90;8.55;;;12.00;91.60;;;;;;5044576;28;20537;-56
2021/05/25 10:28:10;;;;;;;12.40;8.98;;;12.10;91.90;;;;;;5048377;28;20033;-56
2021/05/25 10:30:43;;;;;;;10.48;8.32;;;12.10;91.90;;;;;;5045792;28;20167;-57
2021/05/25 10:33:09;;;;;;;10.82;6.22;;;12.20;92.30;;;;;;5046708;28;20493;-56
2021/05/25 10:36:04;;;;;;;10.77;8.15;;;12.20;91.70;;;;;;5047534;28;20052;-57
2021/05/25 10:38:43;;;;;;;11.13;7.53;;;12.20;91.70;;;;;;5045600;28;20056;-57
2021/05/25 10:41:21;;;;;;;10.20;5.20;;;12.10;91.70;;;;;;5046326;28;20091;-57
2021/05/25 10:43:47;;;;;;;12.85;6.03;;;12.00;91.40;;;;;;5046168;28;20106;-56
2021/05/25 10:46:21;;;;;;;11.25;6.90;;;12.00;91.70;;;;;;5040772;28;20037;-56
2021/05/25 10:49:17;;;;;;;23.88;11.38;;;11.90;91.60;;;;;;5039318;28;20116;-56
2021/05/25 10:51:54;;;;;;;13.63;8.60;;;11.90;92.00;;;;;;5042059;28;20049;-56
2021/05/25 10:54:43;;;;;;;14.13;7.70;;;11.90;92.10;;;;;;5044365;28;20033;-56
2021/05/25 10:57:37;;;;;;;14.23;9.02;;;12.00;92.20;;;;;;5042967;28;20151;-57
2021/05/25 11:00:19;;;;;;;14.15;8.07;;;12.10;92.50;;;;;;5039901;28;20399;-56
2021/05/25 11:03:00;;;;;;;13.27;7.10;;;12.10;92.00;;;;;;5048180;28;20079;-57
2021/05/25 11:05:35;;;;;;;14.77;6.28;;;12.00;92.00;;;;;;5042771;28;20299;-56
2021/05/25 11:08:11;;;;;;;10.05;3.38;;;12.00;91.80;;;;;;5047611;28;20076;-57
2021/05/25 11:10:41;;;;;;;7.35;2.15;;;11.80;90.40;;;;;;5045333;28;20202;-57
2021/05/25 11:13:20;;;;;;;7.30;2.28;;;11.70;89.20;;;;;;5044970;28;20083;-56
2021/05/25 11:16:15;;;;;;;6.22;1.65;;;11.60;88.80;;;;;;5051411;28;20045;-56
2021/05/25 11:23:41;;;;;;;6.38;1.70;;;10.90;88.30;;;;;;5048754;28;20076;-56
2021/05/25 11:26:07;;;;;;;5.20;1.80;;;10.70;89.50;;;;;;5047050;28;20315;-57
2021/05/25 11:29:18;;;;;;;5.88;1.90;;;10.50;90.40;;;;;;5046335;28;20053;-57
2021/05/25 11:31:44;;;;;;;4.88;1.40;;;10.40;90.80;;;;;;5059926;28;20408;-57
2021/05/25 11:34:10;;;;;;;2.55;0.98;;;10.30;90.20;;;;;;5049027;28;20048;-56
2021/05/25 11:36:36;;;;;;;2.60;1.00;;;10.20;89.80;;;;;;5050839;28;20531;-57
2021/05/25 11:39:06;;;;;;;1.98;0.90;;;10.10;90.70;;;;;;5052276;28;20053;-57
2021/05/25 11:41:32;;;;;;;1.98;0.75;;;10.10;90.60;;;;;;5043700;28;20052;-56
2021/05/25 11:44:04;;;;;;;1.13;0.70;;;10.00;90.80;;;;;;5047203;28;20772;-55
2021/05/25 11:46:40;;;;;;;1.08;0.80;;;9.90;91.00;;;;;;5047977;28;20124;-54
2021/05/25 11:49:07;;;;;;;3.75;0.90;;;9.90;91.10;;;;;;5050390;28;20039;-56
2021/05/25 11:51:32;;;;;;;2.50;1.30;;;9.80;91.20;;;;;;5049018;28;20224;-55
2021/05/25 11:54:09;;;;;;;1.58;0.98;;;9.90;91.50;;;;;;5050182;28;20048;-56
2021/05/25 11:56:35;;;;;;;1.75;1.15;;;10.00;91.20;;;;;;5050411;28;20060;-56
2021/05/25 11:59:01;;;;;;;5.78;0.90;;;10.00;91.40;;;;;;5051331;28;20048;-55
2021/05/25 12:01:45;;;;;;;2.65;1.15;;;10.00;91.30;;;;;;5052000;28;20090;-56
2021/05/25 12:04:11;;;;;;;1.83;1.10;;;10.00;91.50;;;;;;5048553;28;20041;-55
2021/05/25 12:06:49;;;;;;;1.58;1.10;;;10.00;91.60;;;;;;5050958;28;20512;-56
2021/05/25 12:09:17;;;;;;;3.50;1.05;;;10.10;91.70;;;;;;5050476;28;20041;-55
2021/05/25 12:11:43;;;;;;;3.13;1.23;;;10.20;91.60;;;;;;5051237;28;20036;-57
2021/05/25 12:14:10;;;;;;;2.70;1.27;;;10.30;91.80;;;;;;5048964;28;20136;-57
2021/05/25 12:16:37;;;;;;;6.75;1.40;;;10.40;91.90;;;;;;5051820;28;20126;-57
2021/05/25 12:19:03;;;;;;;4.65;1.60;;;10.50;91.90;;;;;;5049826;28;20041;-57
2021/05/25 12:21:31;;;;;;;3.30;1.50;;;10.50;91.90;;;;;;5034232;28;20045;-56
2021/05/25 12:23:56;;;;;;;2.80;1.20;;;10.50;92.10;;;;;;5050282;28;20501;-57
2021/05/25 12:26:25;;;;;;;3.85;1.58;;;10.50;92.30;;;;;;5045055;28;20045;-57
2021/05/25 12:28:56;;;;;;;4.43;1.50;;;10.50;92.20;;;;;;5044829;28;20045;-56
2021/05/25 12:31:28;;;;;;;5.28;1.90;;;10.50;92.50;;;;;;5046882;28;20095;-56
2021/05/25 12:33:54;;;;;;;;;;;10.50;92.60;;;;;;5051214;28;20416;-57
2021/05/25 12:36:29;;;;;;;5.68;1.85;;;10.40;92.60;;;;;;5050760;28;20007;-57
2021/05/25 12:39:13;;;;;;;5.10;2.20;;;10.40;92.80;;;;;;5051879;28;20040;-57
2021/05/25 12:41:43;;;;;;;4.85;1.90;;;10.40;92.70;;;;;;5039635;28;20087;-57
2021/05/25 12:44:11;;;;;;;4.72;2.17;;;10.40;92.80;;;;;;5050375;28;20079;-56
2021/05/25 12:47:03;;;;;;;5.63;2.13;;;10.40;92.80;;;;;;5050603;28;20076;-57
2021/05/25 12:49:37;;;;;;;4.68;2.47;;;10.40;93.20;;;;;;5050027;28;20410;-56
2021/05/25 12:52:28;;;;;;;8.80;2.67;;;10.50;92.80;;;;;;5049519;28;20388;-56
2021/05/25 12:55:00;;;;;;;5.65;2.55;;;10.50;92.80;;;;;;5050220;28;20489;-57
2021/05/25 12:57:46;;;;;;;4.37;2.70;;;10.50;93.00;;;;;;5050904;28;20120;-57